createdAt,value
2022-12-25T00:09:13.579Z,5.9
2022-12-25T00:24:23.005Z,5.9
2022-12-25T00:39:32.258Z,5.9
2022-12-25T00:54:41.774Z,5.9
2022-12-25T01:09:51.572Z,5.9
2022-12-25T01:25:00.916Z,5.9
2022-12-25T01:40:10.981Z,6
2022-12-25T01:55:20.844Z,6
2022-12-25T02:10:30.394Z,6
2022-12-25T02:25:40.252Z,6
2022-12-25T02:40:49.429Z,6
2022-12-25T02:55:59.820Z,6.1
2022-12-25T03:11:09.680Z,6.3
2022-12-25T03:26:19.529Z,6.5
2022-12-25T03:41:29.215Z,6.5
2022-12-25T03:56:38.389Z,6.4
2022-12-25T04:11:47.711Z,6.2
2022-12-25T04:26:57.313Z,6.2
2022-12-25T04:42:06.404Z,6.2
2022-12-25T04:57:16.061Z,6.2
2022-12-25T05:12:25.724Z,6.3
2022-12-25T05:27:58.678Z,6.5
2022-12-25T05:43:08.528Z,6.5
2022-12-25T05:58:18.136Z,6.5
2022-12-25T06:13:27.747Z,6.5
2022-12-25T06:28:36.638Z,6.5
2022-12-25T06:43:46.380Z,6.5
2022-12-25T06:58:55.748Z,6.6
2022-12-25T07:14:05.060Z,6.6
2022-12-25T07:29:14.319Z,6.6
2022-12-25T07:44:23.977Z,6.7
2022-12-25T07:59:33.531Z,6.7
2022-12-25T08:14:43.292Z,6.7
2022-12-25T08:29:53.212Z,6.9
2022-12-25T08:45:03.975Z,6.9
2022-12-25T09:00:14.002Z,7.1
2022-12-25T09:15:24.064Z,7.2
2022-12-25T09:30:33.934Z,7.3
2022-12-25T09:45:44.218Z,7.5
2022-12-25T10:00:54.067Z,7.6
2022-12-25T10:16:03.665Z,7.7
2022-12-25T10:31:13.646Z,7.9
2022-12-25T10:46:23.717Z,8
2022-12-25T11:01:34.017Z,8.1
2022-12-25T11:17:10.080Z,8.3
2022-12-25T11:32:20.161Z,8.3
2022-12-25T11:47:29.742Z,8.4
2022-12-25T12:02:39.794Z,8.5
2022-12-25T12:17:51.321Z,8.5
2022-12-25T12:33:01.977Z,8.6
2022-12-25T12:48:11.986Z,8.6
2022-12-25T13:03:22.080Z,8.6
2022-12-25T13:18:32.170Z,8.6
2022-12-25T13:33:41.790Z,8.6
2022-12-25T13:48:51.000Z,8.6
2022-12-25T14:04:01.487Z,8.6
2022-12-25T14:19:11.338Z,8.6
2022-12-25T14:34:20.306Z,8.6
2022-12-25T14:49:29.967Z,8.6
2022-12-25T15:04:39.343Z,8.6
2022-12-25T15:19:48.819Z,8.6
2022-12-25T15:35:01.547Z,8.6
2022-12-25T15:50:11.239Z,8.6
2022-12-25T16:05:20.459Z,8.6
2022-12-25T16:20:30.783Z,8.6
2022-12-25T16:35:40.292Z,8.6
2022-12-25T16:50:49.867Z,8.6
2022-12-25T17:06:00.088Z,8.7
2022-12-25T17:21:09.845Z,8.7
2022-12-25T17:36:19.602Z,8.7
2022-12-25T17:51:29.738Z,8.8
2022-12-25T18:06:39.653Z,8.8
2022-12-25T18:21:49.034Z,8.8
2022-12-25T18:37:02.498Z,8.9
2022-12-25T18:52:47.267Z,9.1
2022-12-25T19:08:02.434Z,9.3
2022-12-25T19:23:12.325Z,9.6
2022-12-25T19:38:21.776Z,9.8
2022-12-25T19:53:32.042Z,10
2022-12-25T20:08:41.204Z,10.1
2022-12-25T20:23:50.946Z,9.9
2022-12-25T20:39:02.592Z,9.9
2022-12-25T20:54:12.475Z,9.9
2022-12-25T21:09:22.037Z,10
2022-12-25T21:24:31.875Z,10.1
2022-12-25T21:39:41.904Z,10.3
2022-12-25T21:54:51.667Z,10.4
2022-12-25T22:10:02.290Z,10.4
2022-12-25T22:25:12.246Z,10.4
2022-12-25T22:40:22.356Z,10.4
2022-12-25T22:55:32.116Z,10.6
2022-12-25T23:10:42.276Z,10.6
2022-12-25T23:25:51.576Z,10.5
2022-12-25T23:41:01.731Z,10.3
2022-12-25T23:56:11.036Z,10
